Eslamshahr, Iran
Current Conditions -  °F | °C
As of 8:30 PM on Saturday 20 Dec 2014 (Local Time) from OIIE Reporting Station
Broken Clouds Broken Clouds  
Wind Chill: 32°   Ceiling: 10000
Heat Index: 41°   Visibility: 6mi
Dew Point: 34°   Wind: 18mph
Humidity: 76%   Direction: 320°NW
Pressure: 30.09"   Gusts: NA
Location:  35.54°N, 51.2°E
Report Text: OIIE 201630Z 32016KT 9999 FEW040 BKN100 05/01 Q1019
Loading
Personal Weather Stations






























Interactive Weather Map New forecast layout! Learn more

10-Day Weather Forecast

Advertisements
Track Severe Weather on mobile